sensor_id;sensor_type;location;lat;lon;timestamp;pressure;altitude;pressure_sealevel;temperature;humidity
54122;BME280;40029;58.708;50.190;2022-12-07T00:00:31;101815.97;;;-11.71;42.54
54122;BME280;40029;58.708;50.190;2022-12-07T00:03:02;101810.91;;;-11.81;43.08
54122;BME280;40029;58.708;50.190;2022-12-07T00:05:33;101817.81;;;-11.78;42.75
54122;BME280;40029;58.708;50.190;2022-12-07T00:08:04;101824.88;;;-11.74;42.72
54122;BME280;40029;58.708;50.190;2022-12-07T00:10:35;101807.44;;;-11.83;42.56
54122;BME280;40029;58.708;50.190;2022-12-07T00:13:06;101816.69;;;-11.82;42.40
54122;BME280;40029;58.708;50.190;2022-12-07T00:15:37;101761.59;;;-12.20;42.06
54122;BME280;40029;58.708;50.190;2022-12-07T00:18:08;101818.34;;;-11.82;42.51
54122;BME280;40029;58.708;50.190;2022-12-07T00:20:39;101805.03;;;-11.92;42.13
54122;BME280;40029;58.708;50.190;2022-12-07T00:23:10;101817.09;;;-11.88;42.12
54122;BME280;40029;58.708;50.190;2022-12-07T00:25:41;101819.63;;;-11.88;42.10
54122;BME280;40029;58.708;50.190;2022-12-07T00:28:12;101816.81;;;-11.91;42.35
54122;BME280;40029;58.708;50.190;2022-12-07T00:30:43;101826.00;;;-11.91;42.16
54122;BME280;40029;58.708;50.190;2022-12-07T00:33:14;101824.75;;;-11.96;42.56
54122;BME280;40029;58.708;50.190;2022-12-07T00:35:45;101820.09;;;-12.02;42.44
54122;BME280;40029;58.708;50.190;2022-12-07T00:38:16;101827.88;;;-11.99;42.58
54122;BME280;40029;58.708;50.190;2022-12-07T00:40:54;101832.13;;;-11.98;42.80
54122;BME280;40029;58.708;50.190;2022-12-07T00:43:26;101824.47;;;-11.99;42.87
54122;BME280;40029;58.708;50.190;2022-12-07T00:45:58;101766.97;;;-12.36;42.34
54122;BME280;40029;58.708;50.190;2022-12-07T00:48:29;101811.41;;;-12.05;42.40
54122;BME280;40029;58.708;50.190;2022-12-07T00:51:00;101838.19;;;-11.96;42.45
54122;BME280;40029;58.708;50.190;2022-12-07T00:53:34;101820.81;;;-12.03;42.56
54122;BME280;40029;58.708;50.190;2022-12-07T00:56:06;101820.09;;;-12.02;42.38
54122;BME280;40029;58.708;50.190;2022-12-07T00:58:37;101818.19;;;-12.04;42.36
54122;BME280;40029;58.708;50.190;2022-12-07T01:01:09;101839.06;;;-11.95;42.40
54122;BME280;40029;58.708;50.190;2022-12-07T01:03:40;101829.00;;;-11.95;42.66
54122;BME280;40029;58.708;50.190;2022-12-07T01:06:17;101839.66;;;-11.98;42.23
54122;BME280;40029;58.708;50.190;2022-12-07T01:08:49;101830.25;;;-12.00;42.38
54122;BME280;40029;58.708;50.190;2022-12-07T01:11:23;101836.91;;;-12.01;42.51
54122;BME280;40029;58.708;50.190;2022-12-07T01:13:56;101830.88;;;-12.03;42.70
54122;BME280;40029;58.708;50.190;2022-12-07T01:16:29;101828.63;;;-12.00;42.67
54122;BME280;40029;58.708;50.190;2022-12-07T01:19:01;101829.50;;;-11.99;42.42
54122;BME280;40029;58.708;50.190;2022-12-07T01:21:33;101826.09;;;-12.00;42.96
54122;BME280;40029;58.708;50.190;2022-12-07T01:24:09;101823.09;;;-11.96;42.78
54122;BME280;40029;58.708;50.190;2022-12-07T01:26:41;101818.59;;;-11.90;42.73
54122;BME280;40029;58.708;50.190;2022-12-07T01:29:12;101820.88;;;-11.93;42.78
54122;BME280;40029;58.708;50.190;2022-12-07T01:31:42;101723.47;;;-12.45;42.31
54122;BME280;40029;58.708;50.190;2022-12-07T01:34:13;101811.94;;;-11.89;42.65
54122;BME280;40029;58.708;50.190;2022-12-07T01:36:44;101824.38;;;-11.80;42.78
54122;BME280;40029;58.708;50.190;2022-12-07T01:39:15;101825.75;;;-11.74;42.80
54122;BME280;40029;58.708;50.190;2022-12-07T01:41:46;101818.09;;;-11.75;42.76
54122;BME280;40029;58.708;50.190;2022-12-07T01:44:29;101833.56;;;-11.71;42.27
54122;BME280;40029;58.708;50.190;2022-12-07T01:47:04;101829.69;;;-11.67;42.94
54122;BME280;40029;58.708;50.190;2022-12-07T01:52:24;101834.47;;;-11.50;42.96
54122;BME280;40029;58.708;50.190;2022-12-07T01:54:59;101834.22;;;-11.43;42.92
54122;BME280;40029;58.708;50.190;2022-12-07T01:57:37;101832.34;;;-11.35;42.60
54122;BME280;40029;58.708;50.190;2022-12-07T02:00:11;101832.97;;;-11.27;42.92
54122;BME280;40029;58.708;50.190;2022-12-07T02:05:17;101773.63;;;-11.46;42.54
54122;BME280;40029;58.708;50.190;2022-12-07T02:07:49;101827.31;;;-11.35;43.14
54122;BME280;40029;58.708;50.190;2022-12-07T02:10:29;101831.59;;;-11.24;43.07
54122;BME280;40029;58.708;50.190;2022-12-07T02:16:03;101828.56;;;-11.30;42.88
54122;BME280;40029;58.708;50.190;2022-12-07T02:25:12;101817.63;;;-11.20;42.71
54122;BME280;40029;58.708;50.190;2022-12-07T02:27:50;101819.50;;;-11.28;42.73
54122;BME280;40029;58.708;50.190;2022-12-07T02:30:26;101823.53;;;-11.20;42.86
54122;BME280;40029;58.708;50.190;2022-12-07T02:33:06;101830.22;;;-11.20;43.01
54122;BME280;40029;58.708;50.190;2022-12-07T02:35:41;101817.13;;;-11.26;42.85
54122;BME280;40029;58.708;50.190;2022-12-07T02:38:26;101828.19;;;-11.24;42.85
54122;BME280;40029;58.708;50.190;2022-12-07T02:43:44;101820.63;;;-11.14;42.30
54122;BME280;40029;58.708;50.190;2022-12-07T02:46:31;101810.09;;;-11.41;42.92
54122;BME280;40029;58.708;50.190;2022-12-07T02:49:03;101822.53;;;-11.22;42.42
54122;BME280;40029;58.708;50.190;2022-12-07T02:51:39;101830.97;;;-11.11;42.32
54122;BME280;40029;58.708;50.190;2022-12-07T02:54:13;101827.41;;;-11.13;42.43
54122;BME280;40029;58.708;50.190;2022-12-07T03:02:39;101828.19;;;-11.14;42.85
54122;BME280;40029;58.708;50.190;2022-12-07T03:07:58;101837.34;;;-11.04;42.43
54122;BME280;40029;58.708;50.190;2022-12-07T03:16:35;101839.25;;;-11.02;42.26
54122;BME280;40029;58.708;50.190;2022-12-07T03:19:17;101827.56;;;-11.12;42.74
54122;BME280;40029;58.708;50.190;2022-12-07T03:22:10;101830.47;;;-11.07;42.67
54122;BME280;40029;58.708;50.190;2022-12-07T03:24:52;101829.31;;;-11.00;42.97
54122;BME280;40029;58.708;50.190;2022-12-07T03:27:28;101818.25;;;-11.13;42.92
54122;BME280;40029;58.708;50.190;2022-12-07T03:30:16;101826.16;;;-10.98;42.96
54122;BME280;40029;58.708;50.190;2022-12-07T03:33:06;101832.81;;;-10.88;42.40
54122;BME280;40029;58.708;50.190;2022-12-07T03:35:44;101821.25;;;-10.96;42.47
54122;BME280;40029;58.708;50.190;2022-12-07T03:38:26;101843.75;;;-10.88;42.26
54122;BME280;40029;58.708;50.190;2022-12-07T03:41:04;101836.22;;;-10.77;42.12
54122;BME280;40029;58.708;50.190;2022-12-07T03:43:37;101838.84;;;-10.76;42.12
54122;BME280;40029;58.708;50.190;2022-12-07T03:46:20;101838.84;;;-10.76;41.62
54122;BME280;40029;58.708;50.190;2022-12-07T03:49:37;101835.63;;;-10.95;42.15
54122;BME280;40029;58.708;50.190;2022-12-07T03:51:51;101834.09;;;-10.93;42.05
54122;BME280;40029;58.708;50.190;2022-12-07T03:57:28;101837.22;;;-10.96;41.80
54122;BME280;40029;58.708;50.190;2022-12-07T04:00:04;101773.59;;;-11.36;41.98
54122;BME280;40029;58.708;50.190;2022-12-07T04:02:42;101845.03;;;-11.13;42.74
54122;BME280;40029;58.708;50.190;2022-12-07T04:05:14;101842.78;;;-11.10;42.39
54122;BME280;40029;58.708;50.190;2022-12-07T04:07:45;101838.13;;;-11.16;42.61
54122;BME280;40029;58.708;50.190;2022-12-07T04:10:16;101782.16;;;-11.54;42.15
54122;BME280;40029;58.708;50.190;2022-12-07T04:12:47;101843.03;;;-11.17;42.13
54122;BME280;40029;58.708;50.190;2022-12-07T04:15:18;101846.03;;;-11.21;42.29
54122;BME280;40029;58.708;50.190;2022-12-07T04:17:49;101788.72;;;-11.46;42.24
54122;BME280;40029;58.708;50.190;2022-12-07T04:20:21;101847.81;;;-11.20;42.81
54122;BME280;40029;58.708;50.190;2022-12-07T04:22:52;101851.84;;;-11.12;42.61
54122;BME280;40029;58.708;50.190;2022-12-07T04:25:23;101851.47;;;-11.06;42.26
54122;BME280;40029;58.708;50.190;2022-12-07T04:27:54;101852.88;;;-11.00;42.21
54122;BME280;40029;58.708;50.190;2022-12-07T04:30:25;101846.81;;;-11.02;42.36
54122;BME280;40029;58.708;50.190;2022-12-07T04:32:56;101847.56;;;-11.13;42.35
54122;BME280;40029;58.708;50.190;2022-12-07T04:35:27;101858.66;;;-11.11;42.51
54122;BME280;40029;58.708;50.190;2022-12-07T04:37:57;101857.75;;;-11.01;42.65
54122;BME280;40029;58.708;50.190;2022-12-07T04:40:28;101814.88;;;-11.34;42.91
54122;BME280;40029;58.708;50.190;2022-12-07T04:42:59;101853.97;;;-10.96;42.68
54122;BME280;40029;58.708;50.190;2022-12-07T04:45:30;101798.00;;;-11.35;42.55
54122;BME280;40029;58.708;50.190;2022-12-07T04:48:01;101852.06;;;-10.89;42.72
54122;BME280;40029;58.708;50.190;2022-12-07T04:50:32;101799.50;;;-11.16;42.42
54122;BME280;40029;58.708;50.190;2022-12-07T04:53:03;101839.75;;;-10.96;42.29
54122;BME280;40029;58.708;50.190;2022-12-07T04:55:34;101836.75;;;-11.02;42.62
54122;BME280;40029;58.708;50.190;2022-12-07T04:58:05;101848.78;;;-10.88;42.19
54122;BME280;40029;58.708;50.190;2022-12-07T05:00:36;101834.09;;;-10.93;42.57
54122;BME280;40029;58.708;50.190;2022-12-07T05:03:07;101844.03;;;-10.95;42.66
54122;BME280;40029;58.708;50.190;2022-12-07T05:05:40;101843.53;;;-11.01;42.89
54122;BME280;40029;58.708;50.190;2022-12-07T05:08:12;101847.28;;;-10.96;42.91
54122;BME280;40029;58.708;50.190;2022-12-07T05:10:43;101839.28;;;-11.12;42.67
54122;BME280;40029;58.708;50.190;2022-12-07T05:13:14;101843.91;;;-11.06;42.51
54122;BME280;40029;58.708;50.190;2022-12-07T05:15:47;101832.97;;;-11.17;42.83
54122;BME280;40029;58.708;50.190;2022-12-07T05:18:18;101845.03;;;-10.93;42.74
54122;BME280;40029;58.708;50.190;2022-12-07T05:20:49;101837.63;;;-10.91;42.12
54122;BME280;40029;58.708;50.190;2022-12-07T05:23:21;101842.78;;;-11.00;42.44
54122;BME280;40029;58.708;50.190;2022-12-07T05:25:52;101805.53;;;-11.14;42.33
54122;BME280;40029;58.708;50.190;2022-12-07T05:28:23;101844.63;;;-10.77;41.77
54122;BME280;40029;58.708;50.190;2022-12-07T05:30:54;101847.41;;;-10.74;42.11
54122;BME280;40029;58.708;50.190;2022-12-07T05:33:25;101843.25;;;-10.73;41.90
54122;BME280;40029;58.708;50.190;2022-12-07T05:35:56;101831.53;;;-10.83;42.43
54122;BME280;40029;58.708;50.190;2022-12-07T05:38:27;101829.41;;;-10.89;42.28
54122;BME280;40029;58.708;50.190;2022-12-07T05:41:06;101845.91;;;-10.92;42.50
54122;BME280;40029;58.708;50.190;2022-12-07T05:43:38;101848.44;;;-10.92;42.23
54122;BME280;40029;58.708;50.190;2022-12-07T05:46:08;101830.44;;;-10.97;42.24
54122;BME280;40029;58.708;50.190;2022-12-07T05:48:39;101718.41;;;-11.65;42.68
54122;BME280;40029;58.708;50.190;2022-12-07T05:51:10;101851.31;;;-10.88;42.13
54122;BME280;40029;58.708;50.190;2022-12-07T05:53:41;101744.94;;;-11.38;41.68
54122;BME280;40029;58.708;50.190;2022-12-07T05:56:12;101839.75;;;-10.86;42.51
54122;BME280;40029;58.708;50.190;2022-12-07T05:58:43;101852.69;;;-10.81;42.51
54122;BME280;40029;58.708;50.190;2022-12-07T06:01:33;101849.94;;;-10.84;42.18
54122;BME280;40029;58.708;50.190;2022-12-07T06:04:04;101828.53;;;-10.89;42.41
54122;BME280;40029;58.708;50.190;2022-12-07T06:06:35;101837.50;;;-11.03;42.44
54122;BME280;40029;58.708;50.190;2022-12-07T06:09:06;101851.56;;;-10.85;42.41
54122;BME280;40029;58.708;50.190;2022-12-07T06:11:38;101845.50;;;-10.76;42.36
54122;BME280;40029;58.708;50.190;2022-12-07T06:14:28;101846.66;;;-10.73;42.16
54122;BME280;40029;58.708;50.190;2022-12-07T06:16:59;101854.81;;;-10.75;42.53
54122;BME280;40029;58.708;50.190;2022-12-07T06:19:30;101853.19;;;-10.65;42.24
54122;BME280;40029;58.708;50.190;2022-12-07T06:22:02;101845.41;;;-10.78;42.37
54122;BME280;40029;58.708;50.190;2022-12-07T06:24:35;101852.88;;;-10.58;42.68
54122;BME280;40029;58.708;50.190;2022-12-07T06:27:06;101856.19;;;-10.59;42.55
54122;BME280;40029;58.708;50.190;2022-12-07T06:29:37;101861.09;;;-10.60;42.57
54122;BME280;40029;58.708;50.190;2022-12-07T06:32:08;101858.22;;;-10.75;42.59
54122;BME280;40029;58.708;50.190;2022-12-07T06:34:39;101850.91;;;-10.72;42.53
54122;BME280;40029;58.708;50.190;2022-12-07T06:37:10;101809.53;;;-10.86;42.39
54122;BME280;40029;58.708;50.190;2022-12-07T06:39:41;101863.59;;;-10.50;42.64
54122;BME280;40029;58.708;50.190;2022-12-07T06:42:12;101854.69;;;-10.56;42.25
54122;BME280;40029;58.708;50.190;2022-12-07T06:44:43;101861.94;;;-10.39;42.14
54122;BME280;40029;58.708;50.190;2022-12-07T06:47:14;101846.59;;;-10.52;42.29
54122;BME280;40029;58.708;50.190;2022-12-07T06:49:45;101779.22;;;-10.87;42.07
54122;BME280;40029;58.708;50.190;2022-12-07T06:52:16;101857.94;;;-10.58;42.05
54122;BME280;40029;58.708;50.190;2022-12-07T06:54:47;101863.44;;;-10.41;42.17
54122;BME280;40029;58.708;50.190;2022-12-07T06:57:18;101856.03;;;-10.40;41.91
54122;BME280;40029;58.708;50.190;2022-12-07T06:59:50;101842.28;;;-10.43;42.13
54122;BME280;40029;58.708;50.190;2022-12-07T07:02:21;101855.88;;;-10.31;41.99
54122;BME280;40029;58.708;50.190;2022-12-07T07:04:52;101850.47;;;-10.36;42.25
54122;BME280;40029;58.708;50.190;2022-12-07T07:07:23;101852.31;;;-10.33;42.19
54122;BME280;40029;58.708;50.190;2022-12-07T07:09:54;101840.50;;;-10.34;42.12
54122;BME280;40029;58.708;50.190;2022-12-07T07:12:25;101845.28;;;-10.37;42.10
54122;BME280;40029;58.708;50.190;2022-12-07T07:14:56;101849.53;;;-10.26;41.83
54122;BME280;40029;58.708;50.190;2022-12-07T07:17:27;101847.06;;;-10.14;41.78
54122;BME280;40029;58.708;50.190;2022-12-07T07:19:58;101847.44;;;-10.10;41.97
54122;BME280;40029;58.708;50.190;2022-12-07T07:22:29;101844.13;;;-10.09;41.83
54122;BME280;40029;58.708;50.190;2022-12-07T07:25:00;101839.03;;;-9.98;41.98
54122;BME280;40029;58.708;50.190;2022-12-07T07:27:31;101833.19;;;-9.87;41.79
54122;BME280;40029;58.708;50.190;2022-12-07T07:30:03;101839.03;;;-9.98;41.63
54122;BME280;40029;58.708;50.190;2022-12-07T07:32:34;101835.63;;;-9.99;41.95
54122;BME280;40029;58.708;50.190;2022-12-07T07:35:06;101829.09;;;-9.97;42.11
54122;BME280;40029;58.708;50.190;2022-12-07T07:37:37;101832.25;;;-9.77;41.49
54122;BME280;40029;58.708;50.190;2022-12-07T07:40:09;101835.53;;;-9.78;41.47
54122;BME280;40029;58.708;50.190;2022-12-07T07:42:41;101819.69;;;-9.88;41.74
54122;BME280;40029;58.708;50.190;2022-12-07T07:45:12;101834.66;;;-9.79;41.97
54122;BME280;40029;58.708;50.190;2022-12-07T07:47:43;101830.97;;;-9.72;41.75
54122;BME280;40029;58.708;50.190;2022-12-07T07:50:14;101833.72;;;-9.69;41.89
54122;BME280;40029;58.708;50.190;2022-12-07T07:52:45;101835.09;;;-9.85;42.08
54122;BME280;40029;58.708;50.190;2022-12-07T07:55:16;101828.56;;;-9.71;42.00
54122;BME280;40029;58.708;50.190;2022-12-07T07:57:47;101832.38;;;-9.54;41.96
54122;BME280;40029;58.708;50.190;2022-12-07T08:00:19;101833.47;;;-9.50;41.56
54122;BME280;40029;58.708;50.190;2022-12-07T08:02:50;101828.09;;;-9.43;41.81
54122;BME280;40029;58.708;50.190;2022-12-07T08:05:21;101826.69;;;-9.40;41.25
54122;BME280;40029;58.708;50.190;2022-12-07T08:07:52;101834.75;;;-9.34;41.54
54122;BME280;40029;58.708;50.190;2022-12-07T08:10:23;101828.59;;;-9.37;41.65
54122;BME280;40029;58.708;50.190;2022-12-07T08:12:54;101831.16;;;-9.14;41.52
54122;BME280;40029;58.708;50.190;2022-12-07T08:15:46;101827.19;;;-9.22;41.38
54122;BME280;40029;58.708;50.190;2022-12-07T08:18:17;101827.31;;;-9.20;41.37
54122;BME280;40029;58.708;50.190;2022-12-07T08:20:48;101830.28;;;-9.14;41.64
54122;BME280;40029;58.708;50.190;2022-12-07T08:23:19;101831.13;;;-8.92;41.50
54122;BME280;40029;58.708;50.190;2022-12-07T08:25:50;101823.22;;;-8.73;41.27
54122;BME280;40029;58.708;50.190;2022-12-07T08:28:21;101820.69;;;-8.73;41.42
54122;BME280;40029;58.708;50.190;2022-12-07T08:30:52;101837.81;;;-8.81;41.61
54122;BME280;40029;58.708;50.190;2022-12-07T08:33:28;101824.84;;;-8.73;41.43
54122;BME280;40029;58.708;50.190;2022-12-07T08:36:01;101821.91;;;-8.56;41.64
54122;BME280;40029;58.708;50.190;2022-12-07T08:38:35;101826.31;;;-8.53;41.01
54122;BME280;40029;58.708;50.190;2022-12-07T08:41:07;101828.16;;;-8.39;41.18
54122;BME280;40029;58.708;50.190;2022-12-07T08:43:38;101838.25;;;-8.39;40.76
54122;BME280;40029;58.708;50.190;2022-12-07T08:46:10;101830.75;;;-8.26;40.77
54122;BME280;40029;58.708;50.190;2022-12-07T08:48:50;101841.94;;;-8.22;41.18
54122;BME280;40029;58.708;50.190;2022-12-07T08:51:23;101842.81;;;-8.10;40.96
54122;BME280;40029;58.708;50.190;2022-12-07T08:53:55;101840.84;;;-8.02;40.79
54122;BME280;40029;58.708;50.190;2022-12-07T08:56:27;101835.00;;;-8.13;40.75
54122;BME280;40029;58.708;50.190;2022-12-07T08:58:58;101850.50;;;-7.97;40.86
54122;BME280;40029;58.708;50.190;2022-12-07T09:01:29;101838.63;;;-7.98;40.60
54122;BME280;40029;58.708;50.190;2022-12-07T09:04:00;101842.03;;;-8.09;41.15
54122;BME280;40029;58.708;50.190;2022-12-07T09:06:31;101845.44;;;-7.97;40.96
54122;BME280;40029;58.708;50.190;2022-12-07T09:09:03;101853.00;;;-7.97;40.92
54122;BME280;40029;58.708;50.190;2022-12-07T09:11:34;101843.88;;;-7.95;40.94
54122;BME280;40029;58.708;50.190;2022-12-07T09:14:06;101841.91;;;-7.99;40.76
54122;BME280;40029;58.708;50.190;2022-12-07T09:16:37;101774.06;;;-8.41;40.84
54122;BME280;40029;58.708;50.190;2022-12-07T09:19:08;101831.50;;;-8.15;41.05
54122;BME280;40029;58.708;50.190;2022-12-07T09:21:39;101837.75;;;-8.10;41.35
54122;BME280;40029;58.708;50.190;2022-12-07T09:24:12;101831.59;;;-8.02;41.03
54122;BME280;40029;58.708;50.190;2022-12-07T09:26:43;101837.06;;;-7.96;41.08
54122;BME280;40029;58.708;50.190;2022-12-07T09:29:15;101829.38;;;-7.97;41.04
54122;BME280;40029;58.708;50.190;2022-12-07T09:31:46;101828.66;;;-7.83;41.35
54122;BME280;40029;58.708;50.190;2022-12-07T09:34:16;101828.06;;;-7.67;41.11
54122;BME280;40029;58.708;50.190;2022-12-07T09:36:48;101828.28;;;-7.64;40.82
54122;BME280;40029;58.708;50.190;2022-12-07T09:39:19;101823.97;;;-7.65;40.85
54122;BME280;40029;58.708;50.190;2022-12-07T09:41:50;101820.44;;;-7.56;40.71
54122;BME280;40029;58.708;50.190;2022-12-07T09:44:24;101826.81;;;-7.61;40.89
54122;BME280;40029;58.708;50.190;2022-12-07T09:46:55;101830.81;;;-7.64;41.36
54122;BME280;40029;58.708;50.190;2022-12-07T09:49:31;101828.53;;;-7.48;40.74
54122;BME280;40029;58.708;50.190;2022-12-07T09:52:20;101829.72;;;-7.68;41.26
54122;BME280;40029;58.708;50.190;2022-12-07T09:54:55;101831.38;;;-7.43;41.04
54122;BME280;40029;58.708;50.190;2022-12-07T09:57:31;101820.75;;;-7.51;41.12
54122;BME280;40029;58.708;50.190;2022-12-07T10:00:14;101826.31;;;-7.43;40.64
54122;BME280;40029;58.708;50.190;2022-12-07T10:03:02;101820.53;;;-7.54;41.08
54122;BME280;40029;58.708;50.190;2022-12-07T10:05:39;101820.06;;;-7.48;41.04
54122;BME280;40029;58.708;50.190;2022-12-07T10:08:12;101814.84;;;-7.38;40.89
54122;BME280;40029;58.708;50.190;2022-12-07T10:10:45;101819.75;;;-7.53;41.35
54122;BME280;40029;58.708;50.190;2022-12-07T10:13:33;101819.44;;;-7.33;40.67
54122;BME280;40029;58.708;50.190;2022-12-07T10:16:05;101805.75;;;-7.48;40.88
54122;BME280;40029;58.708;50.190;2022-12-07T10:18:39;101825.47;;;-7.31;40.73
54122;BME280;40029;58.708;50.190;2022-12-07T10:21:22;101813.50;;;-7.33;40.84
54122;BME280;40029;58.708;50.190;2022-12-07T10:24:28;101822.66;;;-7.60;41.35
54122;BME280;40029;58.708;50.190;2022-12-07T10:27:00;101826.44;;;-7.78;41.54
54122;BME280;40029;58.708;50.190;2022-12-07T10:29:33;101827.63;;;-7.73;41.44
54122;BME280;40029;58.708;50.190;2022-12-07T10:34:39;101818.50;;;-7.71;41.69
54122;BME280;40029;58.708;50.190;2022-12-07T10:39:50;101820.53;;;-7.91;41.64
54122;BME280;40029;58.708;50.190;2022-12-07T10:42:24;101824.75;;;-8.03;42.09
54122;BME280;40029;58.708;50.190;2022-12-07T10:45:16;101822.50;;;-7.87;41.84
54122;BME280;40029;58.708;50.190;2022-12-07T10:51:02;101829.78;;;-7.91;41.56
54122;BME280;40029;58.708;50.190;2022-12-07T10:56:46;101831.78;;;-7.99;41.66
54122;BME280;40029;58.708;50.190;2022-12-07T11:13:27;101802.22;;;-8.48;42.42
54122;BME280;40029;58.708;50.190;2022-12-07T11:16:16;101846.69;;;-8.27;42.34
54122;BME280;40029;58.708;50.190;2022-12-07T11:21:58;101844.97;;;-8.40;42.16
54122;BME280;40029;58.708;50.190;2022-12-07T11:30:12;101845.94;;;-8.38;42.33
54122;BME280;40029;58.708;50.190;2022-12-07T11:33:02;101841.84;;;-8.36;42.02
54122;BME280;40029;58.708;50.190;2022-12-07T11:38:42;101842.22;;;-8.54;42.48
54122;BME280;40029;58.708;50.190;2022-12-07T11:41:22;101846.63;;;-8.52;42.53
54122;BME280;40029;58.708;50.190;2022-12-07T11:46:50;101844.41;;;-8.59;42.64
54122;BME280;40029;58.708;50.190;2022-12-07T11:51:59;101840.91;;;-8.61;42.61
54122;BME280;40029;58.708;50.190;2022-12-07T11:54:35;101860.56;;;-8.57;42.64
54122;BME280;40029;58.708;50.190;2022-12-07T11:57:28;101844.84;;;-8.65;43.24
54122;BME280;40029;58.708;50.190;2022-12-07T12:00:08;101855.28;;;-8.60;42.89
54122;BME280;40029;58.708;50.190;2022-12-07T12:02:53;101847.41;;;-8.53;42.76
54122;BME280;40029;58.708;50.190;2022-12-07T12:05:26;101853.84;;;-8.68;43.12
54122;BME280;40029;58.708;50.190;2022-12-07T12:08:15;101871.34;;;-8.60;42.81
54122;BME280;40029;58.708;50.190;2022-12-07T12:11:13;101868.38;;;-8.66;43.12
54122;BME280;40029;58.708;50.190;2022-12-07T12:17:09;101861.22;;;-8.60;42.95
54122;BME280;40029;58.708;50.190;2022-12-07T15:08:26;101801.59;;;-9.72;43.40
54122;BME280;40029;58.708;50.190;2022-12-07T15:10:58;101852.38;;;-9.45;43.74
54122;BME280;40029;58.708;50.190;2022-12-07T15:13:29;101789.25;;;-9.79;43.46
54122;BME280;40029;58.708;50.190;2022-12-07T15:16:19;101836.72;;;-9.63;43.79
54122;BME280;40029;58.708;50.190;2022-12-07T15:18:51;101840.28;;;-9.49;43.77
54122;BME280;40029;58.708;50.190;2022-12-07T15:21:22;101828.47;;;-9.61;44.17
54122;BME280;40029;58.708;50.190;2022-12-07T15:23:53;101772.59;;;-9.99;44.37
54122;BME280;40029;58.708;50.190;2022-12-07T15:26:24;101846.63;;;-9.54;44.31
54122;BME280;40029;58.708;50.190;2022-12-07T15:28:55;101827.38;;;-9.64;44.16
54122;BME280;40029;58.708;50.190;2022-12-07T15:31:26;101842.91;;;-9.48;44.02
54122;BME280;40029;58.708;50.190;2022-12-07T15:33:58;101841.44;;;-9.56;44.05
54122;BME280;40029;58.708;50.190;2022-12-07T15:36:31;101834.13;;;-9.53;43.82
54122;BME280;40029;58.708;50.190;2022-12-07T15:39:02;101841.78;;;-9.51;43.77
54122;BME280;40029;58.708;50.190;2022-12-07T15:41:35;101850.91;;;-9.53;44.04
54122;BME280;40029;58.708;50.190;2022-12-07T15:44:06;101837.41;;;-9.54;44.12
54122;BME280;40029;58.708;50.190;2022-12-07T15:46:55;101849.25;;;-9.53;43.77
54122;BME280;40029;58.708;50.190;2022-12-07T15:49:27;101845.09;;;-9.52;43.86
54122;BME280;40029;58.708;50.190;2022-12-07T15:51:58;101833.19;;;-9.65;44.00
54122;BME280;40029;58.708;50.190;2022-12-07T15:54:30;101848.75;;;-9.71;43.73
54122;BME280;40029;58.708;50.190;2022-12-07T15:57:02;101750.47;;;-10.25;44.17
54122;BME280;40029;58.708;50.190;2022-12-07T15:59:33;101836.22;;;-9.69;44.12
54122;BME280;40029;58.708;50.190;2022-12-07T16:02:05;101809.69;;;-9.76;44.09
54122;BME280;40029;58.708;50.190;2022-12-07T16:04:36;101828.13;;;-9.65;44.07
54122;BME280;40029;58.708;50.190;2022-12-07T16:07:08;101831.66;;;-9.63;43.85
54122;BME280;40029;58.708;50.190;2022-12-07T16:09:39;101839.00;;;-9.66;44.08
54122;BME280;40029;58.708;50.190;2022-12-07T16:12:11;101756.31;;;-10.14;43.75
54122;BME280;40029;58.708;50.190;2022-12-07T16:14:43;101779.47;;;-10.08;44.42
54122;BME280;40029;58.708;50.190;2022-12-07T16:17:14;101835.25;;;-9.71;44.25
54122;BME280;40029;58.708;50.190;2022-12-07T16:19:45;101839.78;;;-9.67;44.13
54122;BME280;40029;58.708;50.190;2022-12-07T16:22:16;101830.72;;;-9.75;44.23
54122;BME280;40029;58.708;50.190;2022-12-07T16:24:47;101797.53;;;-9.92;44.38
54122;BME280;40029;58.708;50.190;2022-12-07T16:27:18;101836.47;;;-9.66;44.03
54122;BME280;40029;58.708;50.190;2022-12-07T16:29:49;101817.97;;;-9.77;44.16
54122;BME280;40029;58.708;50.190;2022-12-07T16:32:20;101838.75;;;-9.69;44.53
54122;BME280;40029;58.708;50.190;2022-12-07T16:34:51;101844.63;;;-9.59;44.06
54122;BME280;40029;58.708;50.190;2022-12-07T16:37:22;101829.78;;;-9.66;43.55
54122;BME280;40029;58.708;50.190;2022-12-07T16:39:53;101825.25;;;-9.70;43.71
54122;BME280;40029;58.708;50.190;2022-12-07T16:42:24;101842.41;;;-9.66;43.75
54122;BME280;40029;58.708;50.190;2022-12-07T16:44:55;101825.75;;;-9.64;43.59
54122;BME280;40029;58.708;50.190;2022-12-07T16:47:26;101827.69;;;-9.71;44.14
54122;BME280;40029;58.708;50.190;2022-12-07T16:49:57;101777.38;;;-10.14;44.44
54122;BME280;40029;58.708;50.190;2022-12-07T16:52:28;101822.81;;;-9.80;44.29
54122;BME280;40029;58.708;50.190;2022-12-07T16:54:59;101819.28;;;-9.82;44.15
54122;BME280;40029;58.708;50.190;2022-12-07T16:57:30;101831.84;;;-9.72;43.92
54122;BME280;40029;58.708;50.190;2022-12-07T17:00:03;101817.53;;;-9.83;44.33
54122;BME280;40029;58.708;50.190;2022-12-07T17:02:35;101820.41;;;-9.78;44.37
54122;BME280;40029;58.708;50.190;2022-12-07T17:05:06;101832.25;;;-9.77;44.16
54122;BME280;40029;58.708;50.190;2022-12-07T17:07:39;101826.16;;;-9.69;44.19
54122;BME280;40029;58.708;50.190;2022-12-07T17:10:10;101818.81;;;-9.66;44.43
54122;BME280;40029;58.708;50.190;2022-12-07T17:12:41;101812.59;;;-9.82;44.47
54122;BME280;40029;58.708;50.190;2022-12-07T17:15:12;101817.97;;;-9.77;44.41
54122;BME280;40029;58.708;50.190;2022-12-07T17:17:55;101833.75;;;-9.58;44.59